Pagina principale
METAR-TAF:

METAR-TAF

Aeroporti :

Buochs, Svizzera

latitudine: 46-58-28N, longitudine: 8-23-49E, altezza: 449 m

Osservazione

Il bollettino è stato emesso 25 minuti fa, alle 07:50 UTC
Vento 2 kt da direzioni variabili
Temperature 20°C
Umidità 78%
Pressione 1022 hPa
Visibilità 10 km o più
nessuna nube inferiore a 1500 m e nessun cumulonembo

METAR: LSZC 180750Z AUTO VRB02KT CAVOK 20/16 Q1022

Ora: 10:15 (08:15 UTC)

Previsione

Il bollettino è stato emesso 2 ore e 50 minuti fa, alle 05:25 UTC
Previsione valida dal 18 alle 06 UTC al 18 alle 15 UTC
Vento 3 kt da ovest/sud-ovest
Visibilità 10 km o più
nessuna nube inferiore a 1500 m e nessun cumulonembo
Probabilità 40%
dal 18 alle 10 UTC al 18 alle 15 UTC
Visibilità 10 km o più
Poco nuvoloso ad un'altezza di 5000 ft

TAF: LSZC 180525Z 1806/1815 25003KT CAVOK PROB40 1810/1815 9999 FEW050

Osservazioni e previsioni meteorologiche di più di 4000 aeroporti (messaggi METAR e TAF).

Le stazioni disponibili sono rappresentate dai dischi gialli e rossi sulla carta.

Puntare il mouse per vedere il nome della stazione.

Clicca sopra per visualizzare le osservazioni e previsioni meteorologiche.

Per cambiare la mappa : fare clic sui pulsanti verdi con una croce nera per ingrandire, il pulsante verde con un trattino per diminuire, o sulla freccia verde per le mappe adiacenti.


METAR-TAF: